createdAt,value
2024-02-13T00:00:20.011Z,0.00
2024-02-13T00:01:20.037Z,0.00
2024-02-13T00:02:20.033Z,0.00
2024-02-13T00:03:20.033Z,0.00
2024-02-13T00:04:19.933Z,0.00
2024-02-13T00:05:19.960Z,0.00
2024-02-13T00:06:19.938Z,0.00
2024-02-13T00:07:19.932Z,0.00
2024-02-13T00:08:20.476Z,0.00
2024-02-13T00:09:19.967Z,0.00
2024-02-13T00:10:19.874Z,0.00
2024-02-13T00:11:19.976Z,0.00
2024-02-13T00:12:19.902Z,0.00
2024-02-13T00:13:19.899Z,0.00
2024-02-13T00:14:19.876Z,0.00
2024-02-13T00:15:20.044Z,0.00
2024-02-13T00:16:19.848Z,0.00
2024-02-13T00:17:19.852Z,0.00
2024-02-13T00:18:19.890Z,0.00
2024-02-13T00:19:19.871Z,0.00
2024-02-13T00:20:19.822Z,0.00
2024-02-13T00:21:19.764Z,0.00
2024-02-13T00:22:19.762Z,0.00
2024-02-13T00:23:19.808Z,0.00
2024-02-13T00:24:19.753Z,0.00
2024-02-13T00:25:19.853Z,0.00
2024-02-13T00:26:19.752Z,0.00
2024-02-13T00:27:19.711Z,0.00
2024-02-13T00:28:19.697Z,0.00
2024-02-13T00:29:19.693Z,0.00
2024-02-13T00:30:19.773Z,0.00
2024-02-13T00:31:19.675Z,0.00
2024-02-13T00:32:19.681Z,0.00
2024-02-13T00:33:19.794Z,0.00
2024-02-13T00:34:19.666Z,0.00
2024-02-13T00:35:19.629Z,0.00
2024-02-13T00:36:19.626Z,0.00
2024-02-13T00:37:19.692Z,0.00
2024-02-13T00:38:19.585Z,0.00
2024-02-13T00:39:19.624Z,0.00
2024-02-13T00:40:19.574Z,0.00
2024-02-13T00:41:19.577Z,0.00
2024-02-13T00:42:19.562Z,0.00
2024-02-13T00:43:19.551Z,0.00
2024-02-13T00:44:19.536Z,0.00
2024-02-13T00:45:19.549Z,0.00
2024-02-13T00:46:19.530Z,0.00
2024-02-13T00:47:19.953Z,0.00
2024-02-13T00:48:19.679Z,0.00
2024-02-13T00:49:19.523Z,0.00
2024-02-13T00:50:19.538Z,0.00
2024-02-13T00:51:19.449Z,0.00
2024-02-13T00:52:19.446Z,0.00
2024-02-13T00:53:19.466Z,0.00
2024-02-13T00:54:19.400Z,0.00
2024-02-13T00:55:19.421Z,0.00
2024-02-13T00:56:19.435Z,0.00
2024-02-13T00:57:19.375Z,0.00
2024-02-13T00:58:19.419Z,0.00
2024-02-13T00:59:19.443Z,0.00
2024-02-13T01:00:19.402Z,0.00
2024-02-13T01:01:19.451Z,0.00
2024-02-13T01:02:19.399Z,0.00
2024-02-13T01:03:19.336Z,0.00
2024-02-13T01:04:19.428Z,0.00
2024-02-13T01:05:19.319Z,0.00
2024-02-13T01:06:19.320Z,0.00
2024-02-13T01:07:19.305Z,0.00
2024-02-13T01:08:19.322Z,0.00
2024-02-13T01:09:19.263Z,0.00
2024-02-13T01:10:19.221Z,0.00
2024-02-13T01:11:19.465Z,0.00
2024-02-13T01:12:19.204Z,0.00
2024-02-13T01:13:19.248Z,0.00
2024-02-13T01:14:19.310Z,0.00
2024-02-13T01:15:19.194Z,0.00
2024-02-13T01:16:19.188Z,0.00
2024-02-13T01:17:19.285Z,0.00
2024-02-13T01:18:19.410Z,0.00
2024-02-13T01:19:19.216Z,0.00
2024-02-13T01:20:19.193Z,0.00
2024-02-13T01:21:19.128Z,0.00
2024-02-13T01:22:19.135Z,0.00
2024-02-13T01:23:19.146Z,0.00
2024-02-13T01:24:19.104Z,0.00
2024-02-13T01:25:19.105Z,0.00
2024-02-13T01:26:19.117Z,0.00
2024-02-13T01:27:19.071Z,0.00
2024-02-13T01:28:19.098Z,0.00
2024-02-13T01:29:19.064Z,0.00
2024-02-13T01:30:19.059Z,0.00
2024-02-13T01:31:19.005Z,0.00
2024-02-13T01:32:19.080Z,0.00
2024-02-13T01:33:19.213Z,0.00
2024-02-13T01:34:19.036Z,0.00
2024-02-13T01:35:18.986Z,0.00
2024-02-13T01:36:18.994Z,0.00
2024-02-13T01:37:19.032Z,0.00
2024-02-13T01:38:18.963Z,0.00
2024-02-13T01:39:18.964Z,0.00
2024-02-13T01:40:19.071Z,0.00
2024-02-13T01:41:19.011Z,0.00
2024-02-13T01:42:18.921Z,0.00
2024-02-13T01:43:18.885Z,0.00
2024-02-13T01:44:18.977Z,0.00
2024-02-13T01:45:18.927Z,0.00
2024-02-13T01:46:18.838Z,0.00
2024-02-13T01:47:18.946Z,0.00
2024-02-13T01:48:19.143Z,0.00
2024-02-13T01:49:18.939Z,0.00
2024-02-13T01:50:19.011Z,0.00
2024-02-13T01:51:18.828Z,0.00
2024-02-13T01:52:18.828Z,0.00
2024-02-13T01:53:18.805Z,0.00
2024-02-13T01:54:18.752Z,0.00
2024-02-13T01:55:18.788Z,0.00
2024-02-13T01:56:18.800Z,0.00
2024-02-13T01:57:18.847Z,0.00
2024-02-13T01:58:18.752Z,0.00
2024-02-13T01:59:18.818Z,0.00
2024-02-13T02:00:18.735Z,0.00
2024-02-13T02:01:18.736Z,0.00
2024-02-13T02:02:18.807Z,0.00
2024-02-13T02:03:18.756Z,0.00
2024-02-13T02:04:18.784Z,0.00
2024-02-13T02:05:18.721Z,0.00
2024-02-13T02:06:18.774Z,0.00
2024-02-13T02:07:18.682Z,0.00
2024-02-13T02:08:18.675Z,0.00
2024-02-13T02:09:18.600Z,0.00
2024-02-13T02:10:18.619Z,0.00
2024-02-13T02:11:18.640Z,0.00
2024-02-13T02:12:18.693Z,0.00
2024-02-13T02:13:18.570Z,0.00
2024-02-13T02:14:18.619Z,0.00
2024-02-13T02:15:18.574Z,0.00
2024-02-13T02:16:18.524Z,0.00
2024-02-13T02:17:18.669Z,0.00
2024-02-13T02:18:18.655Z,0.00
2024-02-13T02:19:18.605Z,0.00
2024-02-13T02:20:18.568Z,0.00
2024-02-13T02:21:18.471Z,0.00
2024-02-13T02:22:18.448Z,0.00
2024-02-13T02:23:18.486Z,0.00
2024-02-13T02:24:18.456Z,0.00
2024-02-13T02:25:18.425Z,0.00
2024-02-13T02:26:18.513Z,0.00
2024-02-13T02:27:18.443Z,0.00
2024-02-13T02:28:18.418Z,0.00
2024-02-13T02:29:18.447Z,0.00
2024-02-13T02:30:18.428Z,0.00
2024-02-13T02:31:18.399Z,0.00
2024-02-13T02:32:18.373Z,0.00
2024-02-13T02:33:18.444Z,0.00
2024-02-13T02:34:18.387Z,0.00
2024-02-13T02:35:18.707Z,0.00
2024-02-13T02:36:18.329Z,0.00
2024-02-13T02:37:18.290Z,0.00
2024-02-13T02:38:18.343Z,0.00
2024-02-13T02:39:18.283Z,0.00
2024-02-13T02:40:18.314Z,0.00
2024-02-13T02:41:18.274Z,0.00
2024-02-13T02:42:18.265Z,0.00
2024-02-13T02:43:18.314Z,0.00
2024-02-13T02:44:18.312Z,0.00
2024-02-13T02:45:18.226Z,0.00
2024-02-13T02:46:18.224Z,0.00
2024-02-13T02:47:18.215Z,0.00
2024-02-13T02:48:18.530Z,0.00
2024-02-13T02:49:18.228Z,0.00
2024-02-13T02:50:18.205Z,0.00
2024-02-13T02:51:18.140Z,0.00
2024-02-13T02:52:18.134Z,0.00
2024-02-13T02:53:20.294Z,0.00
2024-02-13T02:54:18.117Z,0.00
2024-02-13T02:55:18.125Z,0.00
2024-02-13T02:56:18.132Z,0.00
2024-02-13T02:57:18.079Z,0.00
2024-02-13T02:58:18.057Z,0.00
2024-02-13T02:59:18.065Z,0.00
2024-02-13T03:00:18.054Z,0.00
2024-02-13T03:01:18.049Z,0.00
2024-02-13T03:02:18.042Z,0.00
2024-02-13T03:03:18.060Z,0.00
2024-02-13T03:04:17.997Z,0.00
2024-02-13T03:05:18.170Z,0.00
2024-02-13T03:06:18.155Z,0.00
2024-02-13T03:07:17.968Z,0.00
2024-02-13T03:08:18.003Z,0.00
2024-02-13T03:09:17.992Z,0.00
2024-02-13T03:10:17.942Z,0.00
2024-02-13T03:11:17.954Z,0.00
2024-02-13T03:12:17.907Z,0.00
2024-02-13T03:13:17.925Z,0.00
2024-02-13T03:14:17.960Z,0.00
2024-02-13T03:15:17.892Z,0.00
2024-02-13T03:16:17.888Z,0.00
2024-02-13T03:17:17.877Z,0.00
2024-02-13T03:18:17.951Z,0.00
2024-02-13T03:19:17.900Z,0.00
2024-02-13T03:20:17.938Z,0.00
2024-02-13T03:21:17.841Z,0.00
2024-02-13T03:22:17.810Z,0.00
2024-02-13T03:23:17.890Z,0.00
2024-02-13T03:24:17.786Z,0.00
2024-02-13T03:25:17.790Z,0.00
2024-02-13T03:26:17.797Z,0.00
2024-02-13T03:27:17.805Z,0.00
2024-02-13T03:28:17.755Z,0.00
2024-02-13T03:29:17.764Z,0.00
2024-02-13T03:30:17.740Z,0.00
2024-02-13T03:31:17.724Z,0.00
2024-02-13T03:32:17.761Z,0.00
2024-02-13T03:33:17.817Z,0.00
2024-02-13T03:34:17.772Z,0.00
2024-02-13T03:35:17.742Z,0.00
2024-02-13T03:36:17.683Z,0.00
2024-02-13T03:37:17.649Z,0.00
2024-02-13T03:38:17.655Z,0.00
2024-02-13T03:39:17.660Z,0.00
2024-02-13T03:40:17.707Z,0.00
2024-02-13T03:41:17.781Z,0.00
2024-02-13T03:42:17.856Z,0.00
2024-02-13T03:43:17.578Z,0.00
2024-02-13T03:44:17.595Z,0.00
2024-02-13T03:45:17.570Z,0.00
2024-02-13T03:46:17.535Z,0.00
2024-02-13T03:47:17.597Z,0.00
2024-02-13T03:48:17.708Z,0.00
2024-02-13T03:49:17.552Z,0.00
2024-02-13T03:50:17.903Z,0.00
2024-02-13T03:51:17.493Z,0.00
2024-02-13T03:52:17.490Z,0.00
2024-02-13T03:53:17.510Z,0.00
2024-02-13T03:54:17.458Z,0.00
2024-02-13T03:55:17.461Z,0.00
2024-02-13T03:56:17.482Z,0.00
2024-02-13T03:57:17.431Z,0.00
2024-02-13T03:58:17.417Z,0.00
2024-02-13T03:59:17.443Z,0.00
2024-02-13T04:00:17.400Z,0.00
2024-02-13T04:01:17.416Z,0.00
2024-02-13T04:02:17.402Z,0.00
2024-02-13T04:03:17.366Z,0.00
2024-02-13T04:04:17.370Z,0.00
2024-02-13T04:05:17.423Z,0.00
2024-02-13T04:06:17.415Z,0.00
2024-02-13T04:07:17.352Z,0.00
2024-02-13T04:08:17.344Z,0.00
2024-02-13T04:09:17.320Z,0.00
2024-02-13T04:10:17.286Z,0.00
2024-02-13T04:11:17.312Z,0.00
2024-02-13T04:12:17.279Z,0.00
2024-02-13T04:13:17.266Z,0.00
2024-02-13T04:14:17.282Z,0.00
2024-02-13T04:15:17.261Z,0.00
2024-02-13T04:16:17.220Z,0.00
2024-02-13T04:17:17.243Z,0.00
2024-02-13T04:18:17.265Z,0.00
2024-02-13T04:19:17.210Z,0.00
2024-02-13T04:20:17.243Z,0.00
2024-02-13T04:21:17.190Z,0.00
2024-02-13T04:22:17.166Z,0.00
2024-02-13T04:23:17.180Z,0.00
2024-02-13T04:24:17.136Z,0.00
2024-02-13T04:25:17.154Z,0.00
2024-02-13T04:26:25.602Z,0.00
2024-02-13T04:27:18.240Z,0.00
2024-02-13T04:28:17.134Z,0.00
2024-02-13T04:29:17.119Z,0.00
2024-02-13T04:30:17.095Z,0.00
2024-02-13T04:31:17.070Z,0.00
2024-02-13T04:32:17.105Z,0.00
2024-02-13T04:33:17.221Z,0.00
2024-02-13T04:34:17.183Z,0.00
2024-02-13T04:35:17.103Z,0.00
2024-02-13T04:36:17.017Z,0.00
2024-02-13T04:37:17.004Z,0.00
2024-02-13T04:38:17.033Z,0.00
2024-02-13T04:39:16.988Z,0.00
2024-02-13T04:40:16.985Z,0.00
2024-02-13T04:41:16.987Z,0.00
2024-02-13T04:42:16.947Z,0.00
2024-02-13T04:43:16.947Z,0.00
2024-02-13T04:44:16.963Z,0.00
2024-02-13T04:45:16.968Z,0.00
2024-02-13T04:46:16.988Z,0.00
2024-02-13T04:47:16.951Z,0.00
2024-02-13T04:48:17.047Z,0.00
2024-02-13T04:49:16.961Z,0.00
2024-02-13T04:50:18.807Z,0.00
2024-02-13T04:51:16.888Z,0.00
2024-02-13T04:52:16.843Z,0.00
2024-02-13T04:53:16.880Z,0.00
2024-02-13T04:54:16.837Z,0.00
2024-02-13T04:55:16.823Z,0.00
2024-02-13T04:56:17.207Z,0.00
2024-02-13T04:57:16.787Z,0.00
2024-02-13T04:58:16.776Z,0.00
2024-02-13T04:59:16.810Z,0.00
2024-02-13T05:00:16.768Z,0.00
2024-02-13T05:01:16.807Z,0.00
2024-02-13T05:02:16.832Z,0.00
2024-02-13T05:03:16.727Z,0.00
2024-02-13T05:04:17.118Z,0.00
2024-02-13T05:05:16.874Z,0.00
2024-02-13T05:06:16.793Z,0.00
2024-02-13T05:07:16.709Z,0.00
2024-02-13T05:08:16.691Z,0.00
2024-02-13T05:09:16.786Z,0.00
2024-02-13T05:10:16.640Z,0.00
2024-02-13T05:11:16.704Z,0.00
2024-02-13T05:12:16.645Z,0.00
2024-02-13T05:13:16.611Z,0.00
2024-02-13T05:14:16.631Z,0.00
2024-02-13T05:15:16.599Z,0.00
2024-02-13T05:16:16.576Z,0.00
2024-02-13T05:17:16.621Z,0.00
2024-02-13T05:18:17.100Z,0.00
2024-02-13T05:19:16.746Z,0.00
2024-02-13T05:20:16.580Z,0.00
2024-02-13T05:21:16.544Z,0.00
2024-02-13T05:22:16.535Z,0.00
2024-02-13T05:23:16.542Z,0.00
2024-02-13T05:24:16.521Z,0.00
2024-02-13T05:25:16.488Z,0.00
2024-02-13T05:26:16.566Z,0.00
2024-02-13T05:27:16.502Z,0.00
2024-02-13T05:28:16.450Z,0.00
2024-02-13T05:29:16.491Z,0.00
2024-02-13T05:30:16.445Z,0.00
2024-02-13T05:31:16.425Z,0.00
2024-02-13T05:32:16.481Z,0.00
2024-02-13T05:33:16.524Z,0.00
2024-02-13T05:34:16.477Z,0.00
2024-02-13T05:35:16.467Z,0.00
2024-02-13T05:36:16.363Z,0.00
2024-02-13T05:37:16.393Z,0.00
2024-02-13T05:38:16.392Z,0.00
2024-02-13T05:39:16.345Z,0.00
2024-02-13T05:40:16.336Z,0.00
2024-02-13T05:41:16.350Z,0.00
2024-02-13T05:42:16.301Z,0.00
2024-02-13T05:43:16.296Z,0.00
2024-02-13T05:44:16.314Z,0.00
2024-02-13T05:45:16.282Z,0.00
2024-02-13T05:46:16.258Z,0.00
2024-02-13T05:47:16.367Z,0.00
2024-02-13T05:48:16.406Z,0.00
2024-02-13T05:49:16.303Z,0.00
2024-02-13T05:50:16.242Z,0.00
2024-02-13T05:51:16.333Z,0.00
2024-02-13T05:52:16.209Z,0.00
2024-02-13T05:53:16.227Z,0.00
2024-02-13T05:54:16.259Z,0.00
2024-02-13T05:55:16.169Z,0.00
2024-02-13T05:56:23.388Z,0.00
2024-02-13T05:57:17.162Z,0.00
2024-02-13T05:58:16.146Z,0.00
2024-02-13T05:59:16.194Z,0.00
2024-02-13T06:00:16.631Z,0.00
2024-02-13T06:01:16.156Z,0.00
2024-02-13T06:02:16.115Z,0.00
2024-02-13T06:03:16.138Z,0.00
2024-02-13T06:04:16.076Z,0.00
2024-02-13T06:05:16.074Z,0.00
2024-02-13T06:06:16.209Z,0.00
2024-02-13T06:07:16.108Z,0.00
2024-02-13T06:08:16.050Z,0.00
2024-02-13T06:09:16.020Z,0.00
2024-02-13T06:10:16.016Z,0.00
2024-02-13T06:11:16.199Z,0.00
2024-02-13T06:12:16.174Z,0.00
2024-02-13T06:13:16.049Z,0.00
2024-02-13T06:14:15.972Z,0.00
2024-02-13T06:15:15.954Z,0.00
2024-02-13T06:16:15.940Z,0.00
2024-02-13T06:17:16.019Z,0.00
2024-02-13T06:18:16.073Z,0.00
2024-02-13T06:19:16.008Z,0.00
2024-02-13T06:20:15.953Z,0.00
2024-02-13T06:21:15.883Z,0.00
2024-02-13T06:22:15.891Z,0.00
2024-02-13T06:23:15.902Z,0.00
2024-02-13T06:24:15.855Z,0.00
2024-02-13T06:25:15.834Z,0.00
2024-02-13T06:26:15.863Z,0.00
2024-02-13T06:27:15.820Z,0.00
2024-02-13T06:28:15.812Z,0.00
2024-02-13T06:29:15.815Z,0.00
2024-02-13T06:30:15.792Z,0.00
2024-02-13T06:31:15.824Z,0.00
2024-02-13T06:32:15.809Z,0.00
2024-02-13T06:33:15.943Z,0.00
2024-02-13T06:34:15.823Z,0.00
2024-02-13T06:35:15.823Z,0.00
2024-02-13T06:36:15.753Z,0.00
2024-02-13T06:37:15.712Z,0.00
2024-02-13T06:38:15.755Z,0.00
2024-02-13T06:39:15.715Z,0.00
2024-02-13T06:40:15.702Z,0.00
2024-02-13T06:41:15.713Z,5.62
2024-02-13T06:42:15.675Z,5.62
2024-02-13T06:43:15.682Z,5.62
2024-02-13T06:44:15.656Z,5.62
2024-02-13T06:45:15.636Z,5.62
2024-02-13T06:46:15.624Z,5.62
2024-02-13T06:47:15.639Z,5.62
2024-02-13T06:48:16.048Z,5.62
2024-02-13T06:49:15.768Z,5.62
2024-02-13T06:50:15.648Z,5.62
2024-02-13T06:51:15.620Z,5.62
2024-02-13T06:52:15.616Z,5.62
2024-02-13T06:53:15.626Z,11.25
2024-02-13T06:54:15.642Z,11.25
2024-02-13T06:55:15.587Z,16.88
2024-02-13T06:56:15.546Z,28.12
2024-02-13T06:57:15.512Z,28.12
2024-02-13T06:58:15.497Z,22.50
2024-02-13T06:59:15.502Z,16.88
2024-02-13T07:00:15.595Z,11.25
2024-02-13T07:01:15.506Z,11.25
2024-02-13T07:02:16.563Z,16.88
2024-02-13T07:03:15.437Z,16.88
2024-02-13T07:04:17.173Z,16.88
2024-02-13T07:05:16.116Z,22.50
2024-02-13T07:06:16.332Z,22.50
2024-02-13T07:07:25.813Z,22.50
2024-02-13T07:08:17.217Z,16.88
2024-02-13T07:09:15.693Z,16.88
2024-02-13T07:10:17.273Z,16.88
2024-02-13T07:11:15.400Z,16.88
2024-02-13T07:12:15.729Z,22.50
2024-02-13T07:13:15.357Z,22.50
2024-02-13T07:14:16.132Z,28.12
2024-02-13T07:15:15.696Z,28.12
2024-02-13T07:16:15.333Z,33.75
2024-02-13T07:17:15.383Z,39.38
2024-02-13T07:18:15.374Z,45.00
2024-02-13T07:19:15.372Z,45.00
2024-02-13T07:20:15.631Z,50.62
2024-02-13T07:21:15.643Z,50.62
2024-02-13T07:22:15.346Z,56.25
2024-02-13T07:23:15.305Z,56.25
2024-02-13T07:24:15.233Z,56.25
2024-02-13T07:25:15.215Z,56.25
2024-02-13T07:26:15.401Z,50.62
2024-02-13T07:27:15.191Z,56.25
2024-02-13T07:28:15.899Z,56.25
2024-02-13T07:29:15.202Z,61.88
2024-02-13T07:30:16.101Z,67.50
2024-02-13T07:31:15.446Z,67.50
2024-02-13T07:32:15.225Z,67.50
2024-02-13T07:33:15.254Z,67.50
2024-02-13T07:34:15.226Z,73.12
2024-02-13T07:35:15.134Z,73.12
2024-02-13T07:36:15.150Z,78.75
2024-02-13T07:37:15.071Z,78.75
2024-02-13T07:38:15.135Z,73.12
2024-02-13T07:39:15.046Z,73.12
2024-02-13T07:40:15.057Z,73.12
2024-02-13T07:41:15.078Z,73.12
2024-02-13T07:42:15.426Z,73.12
2024-02-13T07:43:15.376Z,78.75
2024-02-13T07:44:15.680Z,84.38
2024-02-13T07:45:15.171Z,84.38
2024-02-13T07:46:15.418Z,90.00
2024-02-13T07:47:15.337Z,90.00
2024-02-13T07:48:15.300Z,90.00
2024-02-13T07:49:15.274Z,101.25
2024-02-13T07:50:15.400Z,101.25
2024-02-13T07:51:15.258Z,101.25
2024-02-13T07:52:15.723Z,106.88
2024-02-13T07:53:15.280Z,101.25
2024-02-13T07:54:15.303Z,95.62
2024-02-13T07:55:14.870Z,90.00
2024-02-13T07:56:15.476Z,84.38
2024-02-13T07:57:15.339Z,78.75
2024-02-13T07:58:14.932Z,78.75
2024-02-13T07:59:14.883Z,78.75
2024-02-13T08:00:15.229Z,78.75
2024-02-13T08:01:16.291Z,78.75
2024-02-13T08:02:15.601Z,78.75
2024-02-13T08:03:15.180Z,78.75
2024-02-13T08:04:15.373Z,78.75
2024-02-13T08:05:15.022Z,78.75
2024-02-13T08:06:14.865Z,78.75
2024-02-13T08:07:14.951Z,78.75
2024-02-13T08:08:15.126Z,84.38
2024-02-13T08:09:14.722Z,84.38
2024-02-13T08:10:15.065Z,84.38
2024-02-13T08:11:15.081Z,90.00
2024-02-13T08:12:14.865Z,90.00
2024-02-13T08:13:14.918Z,90.00
2024-02-13T08:14:15.610Z,90.00
2024-02-13T08:15:14.899Z,95.62
2024-02-13T08:16:14.908Z,95.62
2024-02-13T08:17:15.058Z,95.62
2024-02-13T08:18:14.874Z,95.62
2024-02-13T08:19:14.695Z,95.62
2024-02-13T08:20:15.052Z,95.62
2024-02-13T08:21:15.324Z,95.62
2024-02-13T08:22:15.096Z,95.62
2024-02-13T08:23:15.624Z,95.62
2024-02-13T08:24:14.897Z,95.62
2024-02-13T08:25:17.384Z,95.62
2024-02-13T08:26:15.187Z,95.62
2024-02-13T08:27:15.258Z,95.62
2024-02-13T08:28:14.565Z,101.25
2024-02-13T08:29:14.739Z,101.25
2024-02-13T08:30:14.530Z,101.25
2024-02-13T08:31:15.214Z,101.25
2024-02-13T08:32:14.679Z,101.25
2024-02-13T08:33:14.831Z,101.25
2024-02-13T08:34:14.714Z,101.25
2024-02-13T08:35:14.688Z,101.25
2024-02-13T08:36:14.490Z,101.25
2024-02-13T08:37:14.474Z,106.88
2024-02-13T08:38:14.462Z,106.88
2024-02-13T08:39:14.648Z,106.88
2024-02-13T08:40:14.468Z,106.88
2024-02-13T08:41:14.409Z,106.88
2024-02-13T08:42:14.420Z,106.88
2024-02-13T08:43:14.377Z,106.88
2024-02-13T08:44:14.412Z,106.88
2024-02-13T08:45:14.343Z,106.88
2024-02-13T08:46:14.361Z,106.88
2024-02-13T08:47:14.392Z,106.88
2024-02-13T08:48:14.533Z,112.50
2024-02-13T08:49:15.142Z,106.88
2024-02-13T08:50:14.767Z,112.50
2024-02-13T08:51:15.335Z,106.88
2024-02-13T08:52:14.298Z,112.50
2024-02-13T08:53:14.305Z,112.50
2024-02-13T08:54:14.521Z,106.88
2024-02-13T08:55:14.589Z,101.25
2024-02-13T08:56:14.296Z,112.50
2024-02-13T08:57:14.231Z,112.50
2024-02-13T08:58:14.230Z,112.50
2024-02-13T08:59:14.231Z,112.50
2024-02-13T09:00:14.246Z,112.50
2024-02-13T09:01:14.922Z,118.12
2024-02-13T09:02:14.423Z,118.12
2024-02-13T09:03:14.858Z,118.12
2024-02-13T09:04:14.163Z,118.12
2024-02-13T09:05:15.015Z,118.12
2024-02-13T09:06:14.170Z,118.12
2024-02-13T09:07:14.872Z,123.75
2024-02-13T09:08:14.112Z,123.75
2024-02-13T09:09:14.794Z,123.75
2024-02-13T09:10:14.345Z,123.75
2024-02-13T09:11:14.873Z,123.75
2024-02-13T09:12:14.053Z,123.75
2024-02-13T09:13:14.131Z,123.75
2024-02-13T09:14:14.053Z,129.38
2024-02-13T09:15:14.014Z,129.38
2024-02-13T09:16:14.343Z,129.38
2024-02-13T09:17:14.049Z,129.38
2024-02-13T09:18:14.106Z,135.00
2024-02-13T09:19:14.234Z,140.62
2024-02-13T09:21:13.986Z,135.00
2024-02-13T09:22:13.940Z,135.00
2024-02-13T09:23:13.952Z,135.00
2024-02-13T09:24:13.916Z,135.00
2024-02-13T09:25:13.918Z,135.00
2024-02-13T09:26:13.945Z,135.00
2024-02-13T09:27:13.884Z,135.00
2024-02-13T09:28:13.884Z,135.00
2024-02-13T09:29:13.874Z,135.00
2024-02-13T09:30:13.889Z,129.38
2024-02-13T09:31:13.860Z,129.38
2024-02-13T09:32:14.006Z,129.38
2024-02-13T09:33:13.920Z,129.38
2024-02-13T09:34:13.969Z,129.38
2024-02-13T09:35:13.868Z,135.00
2024-02-13T09:36:13.795Z,135.00
2024-02-13T09:37:13.813Z,135.00
2024-02-13T09:38:13.829Z,140.62
2024-02-13T09:39:13.767Z,140.62
2024-02-13T09:40:15.486Z,140.62
2024-02-13T09:41:13.801Z,140.62
2024-02-13T09:42:14.822Z,140.62
2024-02-13T09:43:13.732Z,140.62
2024-02-13T09:44:15.236Z,140.62
2024-02-13T09:45:13.705Z,146.25
2024-02-13T09:46:14.415Z,146.25
2024-02-13T09:47:13.743Z,146.25
2024-02-13T09:48:14.066Z,146.25
2024-02-13T09:49:13.833Z,140.62
2024-02-13T09:50:14.735Z,146.25
2024-02-13T09:51:13.634Z,151.88
2024-02-13T09:52:14.421Z,151.88
2024-02-13T09:53:13.677Z,146.25
2024-02-13T09:54:13.922Z,151.88
2024-02-13T09:55:13.598Z,151.88
2024-02-13T09:56:13.737Z,151.88
2024-02-13T09:57:13.644Z,157.50
2024-02-13T09:58:13.555Z,157.50
2024-02-13T09:59:13.566Z,163.12
2024-02-13T10:00:13.553Z,157.50
2024-02-13T10:01:13.569Z,157.50
2024-02-13T10:02:13.538Z,163.12
2024-02-13T10:03:13.741Z,163.12
2024-02-13T10:04:14.470Z,185.62
2024-02-13T10:05:14.039Z,202.50
2024-02-13T10:06:14.121Z,191.25
2024-02-13T10:07:14.469Z,174.38
2024-02-13T10:08:13.481Z,168.75
2024-02-13T10:09:13.502Z,174.38
2024-02-13T10:10:13.437Z,163.12
2024-02-13T10:11:13.933Z,180.00
2024-02-13T10:12:13.420Z,180.00
2024-02-13T10:13:13.445Z,180.00
2024-02-13T10:14:13.409Z,180.00
2024-02-13T10:15:13.378Z,168.75
2024-02-13T10:16:13.358Z,185.62
2024-02-13T10:17:13.421Z,185.62
2024-02-13T10:18:13.516Z,185.62
2024-02-13T10:19:13.373Z,174.38
2024-02-13T10:20:13.368Z,191.25
2024-02-13T10:21:13.302Z,196.88
2024-02-13T10:22:13.330Z,196.88
2024-02-13T10:23:13.438Z,196.88
2024-02-13T10:24:13.645Z,196.88
2024-02-13T10:25:13.348Z,196.88
2024-02-13T10:26:13.387Z,191.25
2024-02-13T10:27:13.267Z,202.50
2024-02-13T10:28:13.240Z,208.12
2024-02-13T10:29:13.304Z,219.38
2024-02-13T10:30:13.229Z,247.50
2024-02-13T10:31:13.190Z,270.00
2024-02-13T10:32:13.233Z,303.75
2024-02-13T10:33:13.292Z,247.50
2024-02-13T10:34:13.626Z,247.50
2024-02-13T10:35:13.262Z,270.00
2024-02-13T10:36:13.181Z,286.88
2024-02-13T10:37:15.767Z,281.25
2024-02-13T10:38:13.162Z,315.00
2024-02-13T10:39:13.132Z,326.25
2024-02-13T10:40:13.096Z,275.62
2024-02-13T10:41:13.167Z,236.25
2024-02-13T10:42:13.100Z,236.25
2024-02-13T10:43:13.091Z,236.25
2024-02-13T10:44:13.054Z,247.50
2024-02-13T10:45:13.083Z,247.50
2024-02-13T10:46:13.054Z,270.00
2024-02-13T10:47:13.030Z,281.25
2024-02-13T10:48:13.112Z,303.75
2024-02-13T10:49:13.063Z,343.12
2024-02-13T10:50:13.057Z,393.75
2024-02-13T10:51:12.987Z,388.12
2024-02-13T10:52:12.960Z,348.75
2024-02-13T10:53:12.955Z,343.12
2024-02-13T10:54:12.940Z,365.62
2024-02-13T10:55:13.638Z,405.00
2024-02-13T10:56:12.974Z,405.00
2024-02-13T10:57:13.689Z,399.38
2024-02-13T10:58:20.867Z,388.12
2024-02-13T10:59:14.988Z,410.62
2024-02-13T11:00:12.931Z,416.25
2024-02-13T11:01:13.808Z,399.38
2024-02-13T11:02:12.970Z,393.75
2024-02-13T11:03:13.014Z,450.00
2024-02-13T11:04:12.893Z,489.38
2024-02-13T11:05:13.933Z,517.50
2024-02-13T11:06:12.904Z,500.62
2024-02-13T11:07:13.562Z,483.75
2024-02-13T11:08:12.810Z,438.75
2024-02-13T11:09:13.912Z,382.50
2024-02-13T11:10:12.816Z,365.62
2024-02-13T11:11:12.802Z,376.88
2024-02-13T11:12:12.858Z,433.12
2024-02-13T11:13:12.761Z,438.75
2024-02-13T11:14:12.728Z,466.88
2024-02-13T11:15:12.788Z,489.38
2024-02-13T11:16:12.778Z,444.38
2024-02-13T11:17:12.713Z,410.62
2024-02-13T11:18:12.896Z,337.50
2024-02-13T11:19:12.739Z,309.38
2024-02-13T11:20:12.724Z,309.38
2024-02-13T11:21:12.715Z,337.50
2024-02-13T11:22:12.746Z,427.50
2024-02-13T11:23:12.639Z,455.62
2024-02-13T11:24:12.719Z,478.12
2024-02-13T11:25:12.883Z,466.88
2024-02-13T11:26:12.633Z,444.38
2024-02-13T11:27:20.515Z,416.25
2024-02-13T11:28:13.579Z,427.50
2024-02-13T11:29:12.858Z,444.38
2024-02-13T11:30:12.586Z,461.25
2024-02-13T11:31:12.572Z,489.38
2024-02-13T11:32:12.555Z,545.62
2024-02-13T11:33:12.776Z,618.75
2024-02-13T11:34:12.684Z,630.00
2024-02-13T11:35:12.752Z,579.38
2024-02-13T11:36:12.542Z,562.50
2024-02-13T11:37:12.485Z,534.38
2024-02-13T11:38:12.474Z,478.12
2024-02-13T11:39:12.485Z,511.88
2024-02-13T11:40:12.450Z,421.88
2024-02-13T11:41:12.479Z,427.50
2024-02-13T11:42:12.429Z,438.75
2024-02-13T11:43:12.415Z,455.62
2024-02-13T11:44:12.554Z,450.00
2024-02-13T11:45:12.402Z,461.25
2024-02-13T11:46:12.410Z,455.62
2024-02-13T11:47:12.414Z,444.38
2024-02-13T11:48:12.541Z,382.50
2024-02-13T11:49:12.741Z,360.00
2024-02-13T11:50:12.418Z,365.62
2024-02-13T11:51:12.472Z,393.75
2024-02-13T11:52:12.316Z,405.00
2024-02-13T11:53:12.336Z,410.62
2024-02-13T11:54:12.345Z,393.75
2024-02-13T11:55:12.303Z,376.88
2024-02-13T11:56:12.290Z,393.75
2024-02-13T11:57:12.273Z,461.25
2024-02-13T11:58:12.271Z,500.62
2024-02-13T11:59:12.392Z,495.00
2024-02-13T12:00:12.370Z,517.50
2024-02-13T12:01:12.546Z,523.12
2024-02-13T12:02:12.218Z,646.88
2024-02-13T12:03:12.260Z,900.00
2024-02-13T12:04:12.410Z,1018.12
2024-02-13T12:05:12.234Z,1158.75
2024-02-13T12:06:12.213Z,1215.00
2024-02-13T12:07:12.267Z,1248.75
2024-02-13T12:08:12.155Z,1282.50
2024-02-13T12:09:12.148Z,1575.00
2024-02-13T12:10:12.142Z,2778.75
2024-02-13T12:11:12.158Z,1957.50
2024-02-13T12:12:12.127Z,680.62
2024-02-13T12:13:12.100Z,2323.12
2024-02-13T12:14:12.087Z,2210.62
2024-02-13T12:15:12.299Z,624.38
2024-02-13T12:16:12.057Z,2480.62
2024-02-13T12:17:12.080Z,2525.62
2024-02-13T12:18:12.141Z,3318.75
2024-02-13T12:19:12.167Z,691.88
2024-02-13T12:20:12.016Z,2919.38
2024-02-13T12:21:12.024Z,3358.12
2024-02-13T12:22:12.003Z,1648.12
2024-02-13T12:23:12.032Z,511.88
2024-02-13T12:24:11.969Z,511.88
2024-02-13T12:25:11.974Z,731.25
2024-02-13T12:26:11.951Z,2998.12
2024-02-13T12:27:11.967Z,3813.75
2024-02-13T12:28:11.945Z,697.50
2024-02-13T12:29:11.941Z,630.00
2024-02-13T12:30:11.916Z,534.38
2024-02-13T12:31:11.928Z,523.12
2024-02-13T12:32:11.883Z,483.75
2024-02-13T12:33:11.968Z,551.25
2024-02-13T12:34:12.010Z,658.12
2024-02-13T12:35:11.854Z,3858.75
2024-02-13T12:36:11.906Z,3566.25
2024-02-13T12:37:11.863Z,641.25
2024-02-13T12:38:11.818Z,866.25
2024-02-13T12:39:11.827Z,556.88
2024-02-13T12:40:11.817Z,624.38
2024-02-13T12:41:11.791Z,793.12
2024-02-13T12:42:11.872Z,3026.25
2024-02-13T12:43:11.788Z,3791.25
2024-02-13T12:44:11.762Z,1226.25
2024-02-13T12:45:11.745Z,1074.38
2024-02-13T12:46:11.879Z,3414.38
2024-02-13T12:47:11.726Z,556.88
2024-02-13T12:48:11.894Z,466.88
2024-02-13T12:49:12.338Z,478.12
2024-02-13T12:50:11.773Z,624.38
2024-02-13T12:51:12.339Z,826.88
2024-02-13T12:52:11.692Z,3465.00
2024-02-13T12:53:11.659Z,1074.38
2024-02-13T12:54:11.657Z,2925.00
2024-02-13T12:55:11.681Z,2947.50
2024-02-13T12:56:11.638Z,2716.88
2024-02-13T12:57:11.613Z,4584.38